createdAt,value
2018-11-01T00:00:14.918Z,2.20
2018-11-01T00:01:20.430Z,2.20
2018-11-01T00:02:25.946Z,2.10
2018-11-01T00:03:31.453Z,2.10
2018-11-01T00:04:36.964Z,2.20
2018-11-01T00:05:42.480Z,2.40
2018-11-01T00:06:47.989Z,2.70
2018-11-01T00:07:53.502Z,3.30
2018-11-01T00:08:59.017Z,3.00
2018-11-01T00:10:04.531Z,3.10
2018-11-01T00:11:10.030Z,3.50
2018-11-01T00:12:15.548Z,3.50
2018-11-01T00:13:21.057Z,3.40
2018-11-01T00:14:26.570Z,3.40
2018-11-01T00:15:32.085Z,3.50
2018-11-01T00:16:37.599Z,3.20
2018-11-01T00:17:43.114Z,3.20
2018-11-01T00:18:48.620Z,4.40
2018-11-01T00:19:54.134Z,3.50
2018-11-01T00:20:59.648Z,3.50
2018-11-01T00:22:05.164Z,3.40
2018-11-01T00:23:10.666Z,3.10
2018-11-01T00:24:16.182Z,2.70
2018-11-01T00:25:21.697Z,2.60
2018-11-01T00:26:27.205Z,2.40
2018-11-01T00:27:32.720Z,2.30
2018-11-01T00:28:38.227Z,2.20
2018-11-01T00:29:43.741Z,2.20
2018-11-01T00:30:49.260Z,2.10
2018-11-01T00:31:54.763Z,2.10
2018-11-01T00:33:00.271Z,2.10
2018-11-01T00:34:05.787Z,2.20
2018-11-01T00:35:11.301Z,2.00
2018-11-01T00:36:16.811Z,1.90
2018-11-01T00:37:22.331Z,2.00
2018-11-01T00:38:27.833Z,2.00
2018-11-01T00:39:33.353Z,2.10
2018-11-01T00:40:38.859Z,1.90
2018-11-01T00:41:44.378Z,1.90
2018-11-01T00:42:49.887Z,1.80
2018-11-01T00:43:55.392Z,1.80
2018-11-01T00:45:00.914Z,1.80
2018-11-01T00:46:06.406Z,1.80
2018-11-01T00:47:11.932Z,1.80
2018-11-01T00:48:17.520Z,2.00
2018-11-01T00:49:22.949Z,1.80
2018-11-01T00:50:28.486Z,1.70
2018-11-01T00:51:33.975Z,1.90
2018-11-01T00:52:39.488Z,1.90
2018-11-01T00:53:44.999Z,1.60
2018-11-01T00:54:50.507Z,1.70
2018-11-01T00:55:56.027Z,1.80
2018-11-01T00:57:01.532Z,1.60
2018-11-01T00:58:07.045Z,1.70
2018-11-01T00:59:12.553Z,1.60
2018-11-01T01:00:18.071Z,1.80
2018-11-01T01:01:23.581Z,1.80
2018-11-01T01:02:29.089Z,1.60
2018-11-01T01:03:34.603Z,1.70
2018-11-01T01:04:40.125Z,1.60
2018-11-01T01:05:45.630Z,1.50
2018-11-01T01:06:51.138Z,1.60
2018-11-01T01:07:56.653Z,1.50
2018-11-01T01:09:02.162Z,1.50
2018-11-01T01:10:07.680Z,1.50
2018-11-01T01:11:13.200Z,1.70
2018-11-01T01:12:18.697Z,1.60
2018-11-01T01:13:24.207Z,1.80
2018-11-01T01:14:29.729Z,1.50
2018-11-01T01:15:35.228Z,1.80
2018-11-01T01:16:40.746Z,1.80
2018-11-01T01:17:46.256Z,1.80
2018-11-01T01:18:51.838Z,2.00
2018-11-01T01:19:57.277Z,1.80
2018-11-01T01:21:02.786Z,1.70
2018-11-01T01:22:08.304Z,1.90
2018-11-01T01:23:13.813Z,2.00
2018-11-01T01:24:19.326Z,1.90
2018-11-01T01:25:24.833Z,2.00
2018-11-01T01:26:30.349Z,1.90
2018-11-01T01:27:35.860Z,1.80
2018-11-01T01:28:41.374Z,2.10
2018-11-01T01:29:46.884Z,2.10
2018-11-01T01:30:52.405Z,1.90
2018-11-01T01:31:57.914Z,1.80
2018-11-01T01:33:03.417Z,2.10
2018-11-01T01:34:08.934Z,2.20
2018-11-01T01:35:14.443Z,1.90
2018-11-01T01:36:19.953Z,1.80
2018-11-01T01:37:25.468Z,2.20
2018-11-01T01:38:30.978Z,2.10
2018-11-01T01:39:36.486Z,2.00
2018-11-01T01:40:42.000Z,2.00
2018-11-01T01:41:47.512Z,2.10
2018-11-01T01:42:53.025Z,2.10
2018-11-01T01:43:58.538Z,2.30
2018-11-01T01:45:04.046Z,2.10
2018-11-01T01:46:09.557Z,1.90
2018-11-01T01:47:15.070Z,2.00
2018-11-01T01:48:20.593Z,2.30
2018-11-01T01:49:26.094Z,2.20
2018-11-01T01:50:31.631Z,2.10
2018-11-01T01:51:37.126Z,2.00
2018-11-01T01:52:42.636Z,2.00
2018-11-01T01:53:48.142Z,2.10
2018-11-01T01:54:53.655Z,2.10
2018-11-01T01:55:59.163Z,2.00
2018-11-01T01:57:04.673Z,2.00
2018-11-01T01:58:10.190Z,2.10
2018-11-01T01:59:15.702Z,2.20
2018-11-01T02:00:21.224Z,2.60
2018-11-01T02:01:26.722Z,2.40
2018-11-01T02:02:32.239Z,2.30
2018-11-01T02:03:37.746Z,2.40
2018-11-01T02:04:43.255Z,2.60
2018-11-01T02:05:48.778Z,2.80
2018-11-01T02:06:54.282Z,2.50
2018-11-01T02:07:59.799Z,2.70
2018-11-01T02:09:05.299Z,2.50
2018-11-01T02:10:10.814Z,2.50
2018-11-01T02:11:16.327Z,2.50
2018-11-01T02:12:21.850Z,2.50
2018-11-01T02:13:27.347Z,2.60
2018-11-01T02:14:32.863Z,2.40
2018-11-01T02:15:38.375Z,2.60
2018-11-01T02:16:43.885Z,2.50
2018-11-01T02:17:49.407Z,2.90
2018-11-01T02:18:54.915Z,2.50
2018-11-01T02:20:00.421Z,2.60
2018-11-01T02:21:05.931Z,2.70
2018-11-01T02:22:11.446Z,2.90
2018-11-01T02:23:16.960Z,2.80
2018-11-01T02:24:22.462Z,2.80
2018-11-01T02:25:27.973Z,2.80
2018-11-01T02:26:33.490Z,3.10
2018-11-01T02:27:38.997Z,2.70
2018-11-01T02:28:44.511Z,3.00
2018-11-01T02:29:50.024Z,3.00
2018-11-01T02:30:55.533Z,3.00
2018-11-01T02:32:01.046Z,2.90
2018-11-01T02:33:06.587Z,2.90
2018-11-01T02:34:12.063Z,2.70
2018-11-01T02:35:17.581Z,3.20
2018-11-01T02:36:23.086Z,3.00
2018-11-01T02:37:28.602Z,2.70
2018-11-01T02:38:34.239Z,3.00
2018-11-01T02:39:39.625Z,2.80
2018-11-01T02:40:45.134Z,3.00
2018-11-01T02:41:50.645Z,2.90
2018-11-01T02:42:56.156Z,2.80
2018-11-01T02:44:01.669Z,3.30
2018-11-01T02:45:07.176Z,3.00
2018-11-01T02:46:12.692Z,2.60
2018-11-01T02:47:18.209Z,2.70
2018-11-01T02:48:23.719Z,2.80
2018-11-01T02:49:29.223Z,3.00
2018-11-01T02:50:34.734Z,2.90
2018-11-01T02:51:40.252Z,3.10
2018-11-01T02:52:45.757Z,3.10
2018-11-01T02:53:51.273Z,2.80
2018-11-01T02:54:56.780Z,3.00
2018-11-01T02:56:02.286Z,2.90
2018-11-01T02:57:07.800Z,3.00
2018-11-01T02:58:13.333Z,2.70
2018-11-01T02:59:18.820Z,2.90
2018-11-01T03:00:24.332Z,3.30
2018-11-01T03:01:29.847Z,3.30
2018-11-01T03:02:35.350Z,3.40
2018-11-01T03:03:40.868Z,3.60
2018-11-01T03:04:46.373Z,3.30
2018-11-01T03:05:51.887Z,3.20
2018-11-01T03:06:57.399Z,3.20
2018-11-01T03:08:02.914Z,3.10
2018-11-01T03:09:08.418Z,3.10
2018-11-01T03:10:13.940Z,3.10
2018-11-01T03:11:19.442Z,2.90
2018-11-01T03:12:24.957Z,3.30
2018-11-01T03:13:30.480Z,3.30
2018-11-01T03:14:35.975Z,3.00
2018-11-01T03:15:41.483Z,3.40
2018-11-01T03:16:47.007Z,3.40
2018-11-01T03:17:52.514Z,2.80
2018-11-01T03:18:58.019Z,3.20
2018-11-01T03:20:03.531Z,3.00
2018-11-01T03:21:09.039Z,3.00
2018-11-01T03:22:14.549Z,2.90
2018-11-01T03:23:20.059Z,3.10
2018-11-01T03:24:25.573Z,3.30
2018-11-01T03:25:31.083Z,3.20
2018-11-01T03:26:36.652Z,2.90
2018-11-01T03:27:42.102Z,3.10
2018-11-01T03:28:47.614Z,2.90
2018-11-01T03:29:53.125Z,3.10
2018-11-01T03:30:58.631Z,3.00
2018-11-01T03:32:04.142Z,3.10
2018-11-01T03:33:09.659Z,3.10
2018-11-01T03:34:15.180Z,3.20
2018-11-01T03:35:20.675Z,2.70
2018-11-01T03:36:26.185Z,2.90
2018-11-01T03:37:31.696Z,2.90
2018-11-01T03:38:37.234Z,2.80
2018-11-01T03:39:42.712Z,2.70
2018-11-01T03:40:48.230Z,3.00
2018-11-01T03:41:53.740Z,3.00
2018-11-01T03:42:59.246Z,2.80
2018-11-01T03:44:04.752Z,2.80
2018-11-01T03:45:10.264Z,2.80
2018-11-01T03:46:15.776Z,3.00
2018-11-01T03:47:21.288Z,2.70
2018-11-01T03:48:26.797Z,2.70
2018-11-01T03:49:32.305Z,2.70
2018-11-01T03:50:37.817Z,2.90
2018-11-01T03:51:43.363Z,3.00
2018-11-01T03:52:48.839Z,2.90
2018-11-01T03:53:54.367Z,2.80
2018-11-01T03:54:59.862Z,2.70
2018-11-01T03:56:05.373Z,2.90
2018-11-01T03:57:10.889Z,3.10
2018-11-01T03:58:16.391Z,2.90
2018-11-01T03:59:21.901Z,2.70
2018-11-01T04:00:27.415Z,2.90
2018-11-01T04:01:32.932Z,2.60
2018-11-01T04:02:38.434Z,2.90
2018-11-01T04:03:44.016Z,2.70
2018-11-01T04:04:49.450Z,2.90
2018-11-01T04:05:54.962Z,2.80
2018-11-01T04:07:00.475Z,2.70
2018-11-01T04:08:05.977Z,2.60
2018-11-01T04:09:11.491Z,2.90
2018-11-01T04:10:16.999Z,3.00
2018-11-01T04:11:22.506Z,3.00
2018-11-01T04:12:28.021Z,2.70
2018-11-01T04:13:33.595Z,2.60
2018-11-01T04:14:39.037Z,2.80
2018-11-01T04:15:44.554Z,2.70
2018-11-01T04:16:50.078Z,2.90
2018-11-01T04:17:55.569Z,2.50
2018-11-01T04:19:01.079Z,2.40
2018-11-01T04:20:06.602Z,2.40
2018-11-01T04:21:12.099Z,2.40
2018-11-01T04:22:17.609Z,2.70
2018-11-01T04:23:23.220Z,2.50
2018-11-01T04:24:28.628Z,2.70
2018-11-01T04:25:34.154Z,2.80
2018-11-01T04:26:39.643Z,2.60
2018-11-01T04:27:45.163Z,2.40
2018-11-01T04:28:50.668Z,2.50
2018-11-01T04:29:56.174Z,2.60
2018-11-01T04:31:01.684Z,2.50
2018-11-01T04:32:07.197Z,2.50
2018-11-01T04:33:12.730Z,2.60
2018-11-01T04:34:18.214Z,2.50
2018-11-01T04:35:23.734Z,2.60
2018-11-01T04:36:29.235Z,2.50
2018-11-01T04:37:34.744Z,2.50
2018-11-01T04:38:40.253Z,2.60
2018-11-01T04:39:45.768Z,2.40
2018-11-01T04:40:51.273Z,2.40
2018-11-01T04:41:56.819Z,2.40
2018-11-01T04:43:02.302Z,2.70
2018-11-01T04:44:07.832Z,2.40
2018-11-01T04:45:13.320Z,2.70
2018-11-01T04:46:18.829Z,2.70
2018-11-01T04:47:24.348Z,2.50
2018-11-01T04:48:29.837Z,2.40
2018-11-01T04:49:35.347Z,2.50
2018-11-01T04:50:40.856Z,2.50
2018-11-01T04:51:46.371Z,2.50
2018-11-01T04:52:51.876Z,2.70
2018-11-01T04:53:57.395Z,2.40
2018-11-01T04:55:02.905Z,2.50
2018-11-01T04:56:08.417Z,2.40
2018-11-01T04:57:13.917Z,2.70
2018-11-01T04:58:19.427Z,2.60
2018-11-01T04:59:24.938Z,2.20
2018-11-01T05:00:30.445Z,2.50
2018-11-01T05:01:35.960Z,2.50
2018-11-01T05:02:41.462Z,2.30
2018-11-01T05:03:46.987Z,2.30
2018-11-01T05:04:52.496Z,2.30
2018-11-01T05:05:57.993Z,2.60
2018-11-01T05:07:03.506Z,2.50
2018-11-01T05:08:09.017Z,2.30
2018-11-01T05:09:14.526Z,2.30
2018-11-01T05:10:20.033Z,2.50
2018-11-01T05:11:25.538Z,2.50
2018-11-01T05:12:31.052Z,2.60
2018-11-01T05:13:36.563Z,2.60
2018-11-01T05:14:42.073Z,2.70
2018-11-01T05:15:47.580Z,2.60
2018-11-01T05:16:53.087Z,2.50
2018-11-01T05:17:58.599Z,2.50
2018-11-01T05:19:04.112Z,2.60
2018-11-01T05:20:09.633Z,2.60
2018-11-01T05:21:15.127Z,2.60
2018-11-01T05:22:20.632Z,2.60
2018-11-01T05:23:26.147Z,2.30
2018-11-01T05:24:31.656Z,2.50
2018-11-01T05:25:37.199Z,2.60
2018-11-01T05:26:42.670Z,2.70
2018-11-01T05:27:48.182Z,2.40
2018-11-01T05:28:53.695Z,2.60
2018-11-01T05:29:59.201Z,2.50
2018-11-01T05:31:04.711Z,2.60
2018-11-01T05:32:10.219Z,2.40
2018-11-01T05:33:15.725Z,2.50
2018-11-01T05:34:21.253Z,2.50
2018-11-01T05:35:26.756Z,2.30
2018-11-01T05:36:32.257Z,2.60
2018-11-01T05:37:37.764Z,2.80
2018-11-01T05:38:43.273Z,2.90
2018-11-01T05:39:48.781Z,2.70
2018-11-01T05:40:54.294Z,2.90
2018-11-01T05:41:59.811Z,2.70
2018-11-01T05:43:05.319Z,2.60
2018-11-01T05:44:10.820Z,2.40
2018-11-01T05:45:16.328Z,2.60
2018-11-01T05:46:21.833Z,2.70
2018-11-01T05:47:27.346Z,2.70
2018-11-01T05:48:32.855Z,2.50
2018-11-01T05:49:38.362Z,2.60
2018-11-01T05:50:43.872Z,2.60
2018-11-01T05:51:49.382Z,2.80
2018-11-01T05:52:54.890Z,2.70
2018-11-01T05:54:00.397Z,2.70
2018-11-01T05:55:05.912Z,2.80
2018-11-01T05:56:11.420Z,2.60
2018-11-01T05:57:16.929Z,2.60
2018-11-01T05:58:22.436Z,2.70
2018-11-01T05:59:27.942Z,2.50
2018-11-01T06:00:33.455Z,2.90
2018-11-01T06:01:38.971Z,2.70
2018-11-01T06:02:44.473Z,2.40
2018-11-01T06:03:49.985Z,2.40
2018-11-01T06:04:55.491Z,2.80
2018-11-01T06:06:00.997Z,2.60
2018-11-01T06:07:06.509Z,2.50
2018-11-01T06:08:12.013Z,2.50
2018-11-01T06:09:17.524Z,2.40
2018-11-01T06:10:23.037Z,2.50
2018-11-01T06:11:28.544Z,2.50
2018-11-01T06:12:34.091Z,2.30
2018-11-01T06:13:39.563Z,2.50
2018-11-01T06:14:45.070Z,2.50
2018-11-01T06:15:50.580Z,2.70
2018-11-01T06:16:56.088Z,3.20
2018-11-01T06:18:01.597Z,2.60
2018-11-01T06:19:07.110Z,2.50
2018-11-01T06:20:12.611Z,2.70
2018-11-01T06:21:18.122Z,2.60
2018-11-01T06:22:23.629Z,2.60
2018-11-01T06:23:29.141Z,2.50
2018-11-01T06:24:34.648Z,2.60
2018-11-01T06:25:40.162Z,2.50
2018-11-01T06:26:45.669Z,2.50
2018-11-01T06:27:51.174Z,2.40
2018-11-01T06:28:56.688Z,2.40
2018-11-01T06:30:02.198Z,2.50
2018-11-01T06:31:07.699Z,2.50
2018-11-01T06:32:13.211Z,2.30
2018-11-01T06:33:18.721Z,2.60
2018-11-01T06:34:24.228Z,2.30
2018-11-01T06:35:29.746Z,2.60
2018-11-01T06:36:35.251Z,2.40
2018-11-01T06:37:40.756Z,2.30
2018-11-01T06:38:46.259Z,2.60
2018-11-01T06:39:51.769Z,2.50
2018-11-01T06:40:57.292Z,2.50
2018-11-01T06:42:02.791Z,2.50
2018-11-01T06:43:08.300Z,2.50
2018-11-01T06:44:13.851Z,2.50
2018-11-01T06:45:19.313Z,2.30
2018-11-01T06:46:24.827Z,2.50
2018-11-01T06:47:30.337Z,2.40
2018-11-01T06:48:35.845Z,2.30
2018-11-01T06:49:41.353Z,2.30
2018-11-01T06:50:46.867Z,2.50
2018-11-01T06:51:52.373Z,2.40
2018-11-01T06:52:57.879Z,2.30
2018-11-01T06:54:03.395Z,2.20
2018-11-01T06:55:08.901Z,2.30
2018-11-01T06:56:14.404Z,2.20
2018-11-01T06:57:19.918Z,2.30
2018-11-01T06:58:25.515Z,2.50
2018-11-01T06:59:31.015Z,2.30
2018-11-01T07:00:36.443Z,2.40
2018-11-01T07:01:41.953Z,2.40
2018-11-01T07:02:47.462Z,2.30
2018-11-01T07:03:52.976Z,2.30
2018-11-01T07:04:58.483Z,2.40
2018-11-01T07:06:03.999Z,2.50
2018-11-01T07:07:09.495Z,2.40
2018-11-01T07:08:15.014Z,2.30
2018-11-01T07:09:20.522Z,2.30
2018-11-01T07:10:26.028Z,2.20
2018-11-01T07:11:31.639Z,2.30
2018-11-01T07:12:37.051Z,2.20
2018-11-01T07:13:42.559Z,2.40
2018-11-01T07:14:48.069Z,2.40
2018-11-01T07:15:53.578Z,2.30
2018-11-01T07:16:59.095Z,2.60
2018-11-01T07:18:04.603Z,2.40
2018-11-01T07:19:10.115Z,2.60
2018-11-01T07:20:15.619Z,2.50
2018-11-01T07:21:21.126Z,2.30
2018-11-01T07:22:26.645Z,2.30
2018-11-01T07:23:32.154Z,2.30
2018-11-01T07:24:37.657Z,2.60
2018-11-01T07:25:43.206Z,2.30
2018-11-01T07:26:48.679Z,2.30
2018-11-01T07:27:54.186Z,2.30
2018-11-01T07:28:59.696Z,2.40
2018-11-01T07:30:05.209Z,2.40
2018-11-01T07:31:10.714Z,2.30
2018-11-01T07:32:16.222Z,2.20
2018-11-01T07:33:21.736Z,2.40
2018-11-01T07:34:27.253Z,2.30
2018-11-01T07:35:32.762Z,2.30
2018-11-01T07:36:38.265Z,2.40
2018-11-01T07:37:43.793Z,2.40
2018-11-01T07:38:49.292Z,2.50
2018-11-01T07:39:54.818Z,2.40
2018-11-01T07:41:00.306Z,2.80
2018-11-01T07:42:05.821Z,2.40
2018-11-01T07:43:11.335Z,2.70
2018-11-01T07:44:16.839Z,2.50
2018-11-01T07:45:22.349Z,2.40
2018-11-01T07:46:27.876Z,2.40
2018-11-01T07:47:33.369Z,2.50
2018-11-01T07:48:38.955Z,2.10
2018-11-01T07:49:44.404Z,2.10
2018-11-01T07:50:49.899Z,2.40
2018-11-01T07:51:55.404Z,2.10
2018-11-01T07:53:00.930Z,2.30
2018-11-01T07:54:06.447Z,2.50
2018-11-01T07:55:11.937Z,2.30
2018-11-01T07:56:17.450Z,2.20
2018-11-01T07:57:22.967Z,2.70
2018-11-01T07:58:28.490Z,2.70
2018-11-01T07:59:33.983Z,2.60
2018-11-01T08:00:39.492Z,2.70
2018-11-01T08:01:45.003Z,2.60
2018-11-01T08:02:50.511Z,2.50
2018-11-01T08:03:56.021Z,2.50
2018-11-01T08:05:01.566Z,3.50
2018-11-01T08:06:07.096Z,2.30
2018-11-01T08:07:12.551Z,2.40
2018-11-01T08:08:18.065Z,2.40
2018-11-01T08:09:23.576Z,2.20
2018-11-01T08:10:29.083Z,2.40
2018-11-01T08:11:34.603Z,2.40
2018-11-01T08:12:40.117Z,2.60
2018-11-01T08:13:45.622Z,3.10
2018-11-01T08:14:51.136Z,2.50
2018-11-01T08:15:56.642Z,2.50
2018-11-01T08:17:02.150Z,2.90
2018-11-01T08:18:07.665Z,2.30
2018-11-01T08:19:13.176Z,2.70
2018-11-01T08:20:18.918Z,2.50
2018-11-01T08:21:24.195Z,2.70
2018-11-01T08:22:29.703Z,2.60
2018-11-01T08:23:35.215Z,2.30
2018-11-01T08:24:40.727Z,2.60
2018-11-01T08:25:46.235Z,2.80
2018-11-01T08:26:51.747Z,2.60
2018-11-01T08:27:57.296Z,2.80
2018-11-01T08:29:02.765Z,2.80
2018-11-01T08:30:08.282Z,2.60
2018-11-01T08:31:13.797Z,2.80
2018-11-01T08:32:19.313Z,2.80
2018-11-01T08:33:24.809Z,2.80
2018-11-01T08:34:30.323Z,2.50
2018-11-01T08:35:35.839Z,2.80
2018-11-01T08:36:41.349Z,2.50
2018-11-01T08:37:46.854Z,2.90
2018-11-01T08:38:52.360Z,2.60
2018-11-01T08:39:57.875Z,2.90
2018-11-01T08:41:03.397Z,2.80
2018-11-01T08:42:08.897Z,3.00
2018-11-01T08:43:14.407Z,3.50
2018-11-01T08:44:19.919Z,3.20
2018-11-01T08:45:25.437Z,3.60
2018-11-01T08:46:30.948Z,3.50
2018-11-01T08:47:36.457Z,2.80
2018-11-01T08:48:41.965Z,3.20
2018-11-01T08:49:47.475Z,3.30
2018-11-01T08:50:52.986Z,2.80
2018-11-01T08:51:58.496Z,3.00
2018-11-01T08:53:04.010Z,3.00
2018-11-01T08:54:09.519Z,3.00
2018-11-01T08:55:15.032Z,2.90
2018-11-01T08:56:20.552Z,3.30
2018-11-01T08:57:26.054Z,3.20
2018-11-01T08:58:31.565Z,3.50
2018-11-01T08:59:37.076Z,3.80
2018-11-01T09:00:42.590Z,3.10
2018-11-01T09:01:48.106Z,3.40
2018-11-01T09:02:53.614Z,3.50
2018-11-01T09:03:59.125Z,3.30
2018-11-01T09:05:04.631Z,4.80
2018-11-01T09:06:10.155Z,6.10
2018-11-01T09:07:15.697Z,6.00
2018-11-01T09:08:21.166Z,6.30
2018-11-01T09:09:26.680Z,7.10
2018-11-01T09:10:32.254Z,6.90
2018-11-01T09:11:37.698Z,7.40
2018-11-01T09:12:43.271Z,6.80
2018-11-01T09:13:48.720Z,6.60
2018-11-01T09:14:54.248Z,5.70
2018-11-01T09:15:59.751Z,4.70
2018-11-01T09:17:05.259Z,4.10
2018-11-01T09:18:10.775Z,3.70
2018-11-01T09:19:16.339Z,4.10
2018-11-01T09:20:21.802Z,4.20
2018-11-01T09:21:27.311Z,4.40
2018-11-01T09:22:32.814Z,4.60
2018-11-01T09:23:38.335Z,5.20
2018-11-01T09:24:43.836Z,5.00
2018-11-01T09:25:49.350Z,5.20
2018-11-01T09:26:54.945Z,4.90
2018-11-01T09:28:00.372Z,5.00
2018-11-01T09:29:05.917Z,4.90
2018-11-01T09:30:11.397Z,4.70
2018-11-01T09:31:16.908Z,4.80
2018-11-01T09:32:22.422Z,4.80
2018-11-01T09:33:27.936Z,4.70
2018-11-01T09:34:33.440Z,4.90
2018-11-01T09:35:39.029Z,5.10
2018-11-01T09:36:44.461Z,5.50
2018-11-01T09:37:49.974Z,5.30
2018-11-01T09:38:55.492Z,5.30
2018-11-01T09:40:00.994Z,5.30
2018-11-01T09:41:06.509Z,5.80
2018-11-01T09:42:12.027Z,5.60
2018-11-01T09:43:17.540Z,5.50
2018-11-01T09:44:23.043Z,5.40
2018-11-01T09:45:28.557Z,5.80
2018-11-01T09:46:34.243Z,5.10
2018-11-01T09:47:39.955Z,5.00
2018-11-01T09:48:45.094Z,5.30
2018-11-01T09:49:50.599Z,5.40
2018-11-01T09:50:56.110Z,5.40
2018-11-01T09:52:01.625Z,5.70
2018-11-01T09:53:07.151Z,5.40
2018-11-01T09:54:12.649Z,5.50
2018-11-01T09:55:18.160Z,5.40
2018-11-01T09:56:23.721Z,5.80
2018-11-01T09:57:29.188Z,5.70
2018-11-01T09:58:34.692Z,5.60
2018-11-01T09:59:40.204Z,5.20
2018-11-01T10:00:45.716Z,5.30
2018-11-01T10:01:51.227Z,5.60
2018-11-01T10:02:56.736Z,5.40
2018-11-01T10:04:02.248Z,5.30
2018-11-01T10:05:07.760Z,5.30
2018-11-01T10:06:13.318Z,5.80
2018-11-01T10:07:18.788Z,5.30
2018-11-01T10:08:24.298Z,5.20
2018-11-01T10:09:29.809Z,5.30
2018-11-01T10:10:35.316Z,5.30
2018-11-01T10:11:40.829Z,5.20
2018-11-01T10:12:46.351Z,5.40
2018-11-01T10:13:51.855Z,5.20
2018-11-01T10:14:57.431Z,5.20
2018-11-01T10:16:02.994Z,5.00
2018-11-01T10:17:08.650Z,5.50
2018-11-01T10:18:14.243Z,5.60
2018-11-01T10:19:19.423Z,5.80
2018-11-01T10:20:24.927Z,5.80
2018-11-01T10:21:30.555Z,6.10
2018-11-01T10:22:35.997Z,6.10
2018-11-01T10:23:41.462Z,6.00
2018-11-01T10:24:46.978Z,5.70
2018-11-01T10:25:52.492Z,6.40
2018-11-01T10:26:58.002Z,5.70
2018-11-01T10:28:03.506Z,6.00
2018-11-01T10:29:09.019Z,5.30
2018-11-01T10:30:14.540Z,5.40
2018-11-01T10:31:20.051Z,5.60
2018-11-01T10:32:25.564Z,5.70
2018-11-01T10:33:31.064Z,5.70
2018-11-01T10:34:36.583Z,5.40
2018-11-01T10:35:42.091Z,5.40
2018-11-01T10:36:47.601Z,5.30
2018-11-01T10:37:53.122Z,5.10
2018-11-01T10:38:58.628Z,5.00
2018-11-01T10:40:04.140Z,5.40
2018-11-01T10:41:09.647Z,5.00
2018-11-01T10:42:15.163Z,5.20
2018-11-01T10:43:20.677Z,4.80
2018-11-01T10:44:26.194Z,4.90
2018-11-01T10:45:31.707Z,4.90
2018-11-01T10:46:37.255Z,5.20
2018-11-01T10:47:42.816Z,5.00
2018-11-01T10:48:48.230Z,4.50
2018-11-01T10:49:53.745Z,5.00
2018-11-01T10:50:59.255Z,5.30
2018-11-01T10:52:04.768Z,4.70
2018-11-01T10:53:10.278Z,5.30
2018-11-01T10:54:15.901Z,5.50
2018-11-01T10:55:21.316Z,5.50
2018-11-01T10:56:26.817Z,5.20
2018-11-01T10:57:32.332Z,4.60
2018-11-01T10:58:37.840Z,4.90
2018-11-01T10:59:43.356Z,4.80
2018-11-01T11:00:48.980Z,5.00
2018-11-01T11:01:54.377Z,5.10
2018-11-01T11:02:59.892Z,5.60
2018-11-01T11:04:05.405Z,5.70
2018-11-01T11:05:10.914Z,5.40
2018-11-01T11:06:16.426Z,5.30
2018-11-01T11:07:21.946Z,5.20
2018-11-01T11:08:27.446Z,5.40
2018-11-01T11:09:32.970Z,5.40
2018-11-01T11:10:38.480Z,5.40
2018-11-01T11:11:43.987Z,5.50
2018-11-01T11:12:49.496Z,5.40
2018-11-01T11:13:55.010Z,5.40
2018-11-01T11:15:00.524Z,4.80
2018-11-01T11:16:06.033Z,5.00
2018-11-01T11:17:11.546Z,4.80
2018-11-01T11:18:17.060Z,4.60
2018-11-01T11:19:22.585Z,4.90
2018-11-01T11:20:28.373Z,4.60
2018-11-01T11:21:33.596Z,5.00
2018-11-01T11:22:39.114Z,4.70
2018-11-01T11:23:44.620Z,4.60
2018-11-01T11:24:50.146Z,4.80
2018-11-01T11:25:55.645Z,4.50
2018-11-01T11:27:01.155Z,4.40
2018-11-01T11:28:06.677Z,4.20
2018-11-01T11:29:12.179Z,4.40
2018-11-01T11:30:17.806Z,4.60
2018-11-01T11:31:23.203Z,4.30
2018-11-01T11:32:28.721Z,4.10
2018-11-01T11:33:34.225Z,4.30
2018-11-01T11:34:39.756Z,4.50
2018-11-01T11:35:45.271Z,4.30
2018-11-01T11:36:50.778Z,4.30
2018-11-01T11:37:56.275Z,4.40
2018-11-01T11:39:01.835Z,4.50
2018-11-01T11:40:07.306Z,4.40
2018-11-01T11:41:12.824Z,4.10
2018-11-01T11:42:18.333Z,4.60
2018-11-01T11:43:23.838Z,4.20
2018-11-01T11:44:29.384Z,3.70
2018-11-01T11:45:35.024Z,4.10
2018-11-01T11:46:40.967Z,4.20
2018-11-01T11:47:46.483Z,3.90
2018-11-01T11:48:51.403Z,4.00
2018-11-01T11:49:56.923Z,4.60
2018-11-01T11:51:02.428Z,4.30
2018-11-01T11:52:08.160Z,4.30
2018-11-01T11:53:13.462Z,4.20
2018-11-01T11:54:18.963Z,4.00
2018-11-01T11:55:24.484Z,4.00
2018-11-01T11:56:30.004Z,4.30
2018-11-01T11:57:35.509Z,4.00
2018-11-01T11:58:41.024Z,4.00
2018-11-01T11:59:46.528Z,4.10
2018-11-01T12:00:52.040Z,4.20
2018-11-01T12:01:57.554Z,3.90
2018-11-01T12:03:03.066Z,4.20
2018-11-01T12:04:08.576Z,4.10
2018-11-01T12:05:14.153Z,4.40
2018-11-01T12:06:19.799Z,4.00
2018-11-01T12:07:25.127Z,4.00
2018-11-01T12:08:30.626Z,4.20
2018-11-01T12:09:36.138Z,3.80
2018-11-01T12:10:41.650Z,4.00
2018-11-01T12:11:47.162Z,4.00
2018-11-01T12:12:52.673Z,4.40
2018-11-01T12:13:58.246Z,3.80
2018-11-01T12:15:03.699Z,4.30
2018-11-01T12:16:09.212Z,4.10
2018-11-01T12:17:14.728Z,4.20
2018-11-01T12:18:20.240Z,4.00
2018-11-01T12:19:25.754Z,4.00
2018-11-01T12:20:31.262Z,4.10
2018-11-01T12:21:36.783Z,4.10
2018-11-01T12:22:42.299Z,3.90
2018-11-01T12:23:47.800Z,4.30
2018-11-01T12:24:53.322Z,3.80
2018-11-01T12:25:58.833Z,4.10
2018-11-01T12:27:04.339Z,3.70
2018-11-01T12:28:09.901Z,4.10
2018-11-01T12:29:15.367Z,4.20
2018-11-01T12:30:20.876Z,4.20
2018-11-01T12:31:26.394Z,4.00
2018-11-01T12:32:31.909Z,4.20
2018-11-01T12:33:37.411Z,4.30
2018-11-01T12:34:42.926Z,4.10
2018-11-01T12:35:48.451Z,4.10
2018-11-01T12:36:53.953Z,3.80
2018-11-01T12:37:59.466Z,3.90
2018-11-01T12:39:04.975Z,4.10
2018-11-01T12:40:10.491Z,4.00
2018-11-01T12:41:16.018Z,3.80
2018-11-01T12:42:21.528Z,4.20
2018-11-01T12:43:27.016Z,4.10
2018-11-01T12:44:32.544Z,4.10
2018-11-01T12:45:38.057Z,4.10
2018-11-01T12:46:43.566Z,4.10
2018-11-01T12:47:49.076Z,4.20
2018-11-01T12:48:54.592Z,3.90
2018-11-01T12:50:00.212Z,3.90
2018-11-01T12:51:05.611Z,3.70
2018-11-01T12:52:11.125Z,4.50
2018-11-01T12:53:16.642Z,3.80
2018-11-01T12:54:22.152Z,3.70
2018-11-01T12:55:27.675Z,3.70
2018-11-01T12:56:33.359Z,3.70
2018-11-01T12:57:38.691Z,3.80
2018-11-01T12:58:44.200Z,4.30
2018-11-01T12:59:49.712Z,3.80
2018-11-01T13:00:55.222Z,3.90
2018-11-01T13:02:00.740Z,4.00
2018-11-01T13:03:06.251Z,4.30
2018-11-01T13:04:11.767Z,3.80
2018-11-01T13:05:17.276Z,4.10
2018-11-01T13:06:22.785Z,4.20
2018-11-01T13:07:28.302Z,4.30
2018-11-01T13:08:33.825Z,8.00
2018-11-01T13:09:39.324Z,4.10
2018-11-01T13:10:44.977Z,3.80
2018-11-01T13:11:50.351Z,3.90
2018-11-01T13:12:55.866Z,3.80
2018-11-01T13:14:01.376Z,3.80
2018-11-01T13:15:06.885Z,3.70
2018-11-01T13:16:12.401Z,3.90
2018-11-01T13:17:17.922Z,3.80
2018-11-01T13:18:23.436Z,3.90
2018-11-01T13:19:28.957Z,3.70
2018-11-01T13:20:34.453Z,3.80
2018-11-01T13:21:39.963Z,4.20
2018-11-01T13:22:45.476Z,3.70
2018-11-01T13:23:50.988Z,3.60
2018-11-01T13:24:56.504Z,4.20
2018-11-01T13:26:02.016Z,3.90
2018-11-01T13:27:07.524Z,3.70
2018-11-01T13:28:13.041Z,3.90
2018-11-01T13:29:18.642Z,4.10
2018-11-01T13:30:24.076Z,4.30
2018-11-01T13:31:29.582Z,4.90
2018-11-01T13:32:35.105Z,5.00
2018-11-01T13:33:40.603Z,4.80
2018-11-01T13:34:46.154Z,5.00
2018-11-01T13:35:51.626Z,4.70
2018-11-01T13:36:57.141Z,4.60
2018-11-01T13:38:02.666Z,4.30
2018-11-01T13:39:08.161Z,4.20
2018-11-01T13:40:13.861Z,4.40
2018-11-01T13:41:19.231Z,4.20
2018-11-01T13:42:24.700Z,4.20
2018-11-01T13:43:30.213Z,4.10
2018-11-01T13:44:35.717Z,4.40
2018-11-01T13:45:41.247Z,4.50
2018-11-01T13:46:46.758Z,4.00
2018-11-01T13:47:52.325Z,4.40
2018-11-01T13:48:57.802Z,4.40
2018-11-01T13:50:03.289Z,4.40
2018-11-01T13:51:08.796Z,4.40
2018-11-01T13:52:14.311Z,4.50
2018-11-01T13:53:19.832Z,4.80
2018-11-01T13:54:25.388Z,5.20
2018-11-01T13:55:30.858Z,5.10
2018-11-01T13:56:36.442Z,5.10
2018-11-01T13:57:41.877Z,5.30
2018-11-01T13:58:47.386Z,5.40
2018-11-01T13:59:52.902Z,4.40
2018-11-01T14:00:58.409Z,4.70
2018-11-01T14:02:03.926Z,4.70
2018-11-01T14:03:09.434Z,4.70
2018-11-01T14:04:14.957Z,4.70
2018-11-01T14:05:20.479Z,4.40
2018-11-01T14:06:26.059Z,4.80
2018-11-01T14:07:31.497Z,4.60
2018-11-01T14:08:36.999Z,5.00
2018-11-01T14:09:42.518Z,4.80
2018-11-01T14:10:48.024Z,4.90
2018-11-01T14:11:53.536Z,5.40
2018-11-01T14:12:59.051Z,6.00
2018-11-01T14:14:04.990Z,6.00
2018-11-01T14:15:10.398Z,5.80
2018-11-01T14:16:15.592Z,6.00
2018-11-01T14:17:21.102Z,6.00
2018-11-01T14:18:26.617Z,5.60
2018-11-01T14:19:32.120Z,6.00
2018-11-01T14:20:37.641Z,6.00
2018-11-01T14:21:43.153Z,6.00
2018-11-01T14:22:48.660Z,6.20
2018-11-01T14:23:54.175Z,6.10
2018-11-01T14:24:59.688Z,6.00
2018-11-01T14:26:05.207Z,5.50
2018-11-01T14:27:10.732Z,5.50
2018-11-01T14:28:16.216Z,5.60
2018-11-01T14:29:21.742Z,5.00
2018-11-01T14:30:27.254Z,5.20
2018-11-01T14:31:32.764Z,5.50